Fredonia, Iowa
Current Conditions -  °F | °C
As of 10:35 PM on Wednesday 26 Nov 2014 (Local Time) from KAWG Reporting Station
Haze Haze  
Wind Chill: -8°   Ceiling: 3000
Heat Index: -4°   Visibility: 3mi
Dew Point: -4°   Wind: 7mph
Humidity: 100%   Direction: 320°NW
Pressure: 30.27"   Gusts: NA
Location:  41.2636°N, 91.4145°W
Report Text: KAWG 270435Z AUTO 32006KT 3SM BR FEW006 BKN030 OVC043 M04/M04 A3027 RMK AO2
Loading
Personal Weather Stations






























Interactive Weather Map New forecast layout! Learn more

10-Day Weather Forecast

Advertisements
Track Severe Weather on mobile